sensor_id;sensor_type;location;lat;lon;timestamp;pressure;altitude;pressure_sealevel;temperature;humidity
40864;BME280;26582;47.524;19.012;2023-12-14T00:00:26;97491.69;;;7.18;92.34
40864;BME280;26582;47.524;19.012;2023-12-14T00:02:53;97495.16;;;7.11;92.19
40864;BME280;26582;47.524;19.012;2023-12-14T00:05:20;97489.50;;;7.05;92.23
40864;BME280;26582;47.524;19.012;2023-12-14T00:07:46;97495.09;;;6.94;92.74
40864;BME280;26582;47.524;19.012;2023-12-14T00:10:14;97483.28;;;6.80;93.21
40864;BME280;26582;47.524;19.012;2023-12-14T00:12:43;97487.66;;;6.64;93.26
40864;BME280;26582;47.524;19.012;2023-12-14T00:15:09;97481.03;;;6.60;93.64
40864;BME280;26582;47.524;19.012;2023-12-14T00:17:36;97480.34;;;6.58;94.00
40864;BME280;26582;47.524;19.012;2023-12-14T00:20:04;97476.66;;;6.50;94.12
40864;BME280;26582;47.524;19.012;2023-12-14T00:22:30;97471.00;;;6.45;94.49
40864;BME280;26582;47.524;19.012;2023-12-14T00:24:57;97478.66;;;6.48;94.45
40864;BME280;26582;47.524;19.012;2023-12-14T00:27:25;97484.56;;;6.42;95.37
40864;BME280;26582;47.524;19.012;2023-12-14T00:29:52;97494.78;;;6.37;95.59
40864;BME280;26582;47.524;19.012;2023-12-14T00:32:18;97511.00;;;6.42;95.20
40864;BME280;26582;47.524;19.012;2023-12-14T00:34:45;97513.28;;;6.37;95.66
40864;BME280;26582;47.524;19.012;2023-12-14T00:37:12;97519.50;;;6.28;95.75
40864;BME280;26582;47.524;19.012;2023-12-14T00:39:38;97528.25;;;6.11;96.70
40864;BME280;26582;47.524;19.012;2023-12-14T00:42:05;97537.72;;;6.13;96.76
40864;BME280;26582;47.524;19.012;2023-12-14T00:44:33;97553.84;;;6.10;96.85
40864;BME280;26582;47.524;19.012;2023-12-14T00:47:00;97556.88;;;6.15;96.77
40864;BME280;26582;47.524;19.012;2023-12-14T00:49:25;97562.16;;;6.15;97.23
40864;BME280;26582;47.524;19.012;2023-12-14T00:51:53;97567.84;;;6.03;97.06
40864;BME280;26582;47.524;19.012;2023-12-14T00:54:20;97580.22;;;6.02;96.79
40864;BME280;26582;47.524;19.012;2023-12-14T00:56:47;97580.22;;;6.02;97.69
40864;BME280;26582;47.524;19.012;2023-12-14T00:59:13;97593.97;;;6.06;97.43
40864;BME280;26582;47.524;19.012;2023-12-14T01:01:41;97617.75;;;6.06;97.12
40864;BME280;26582;47.524;19.012;2023-12-14T01:04:08;97611.63;;;6.05;96.32
40864;BME280;26582;47.524;19.012;2023-12-14T01:06:35;97627.13;;;6.18;96.73
40864;BME280;26582;47.524;19.012;2023-12-14T01:09:02;97615.28;;;6.22;96.00
40864;BME280;26582;47.524;19.012;2023-12-14T01:11:29;97614.28;;;6.23;96.70
40864;BME280;26582;47.524;19.012;2023-12-14T01:13:55;97608.91;;;6.33;96.08
40864;BME280;26582;47.524;19.012;2023-12-14T01:16:25;97590.25;;;6.34;95.98
40864;BME280;26582;47.524;19.012;2023-12-14T01:18:53;97585.41;;;6.30;95.43
40864;BME280;26582;47.524;19.012;2023-12-14T01:21:20;97578.75;;;6.25;95.87
40864;BME280;26582;47.524;19.012;2023-12-14T01:23:47;97543.16;;;5.94;96.50
40864;BME280;26582;47.524;19.012;2023-12-14T01:26:14;97558.31;;;6.27;96.78
40864;BME280;26582;47.524;19.012;2023-12-14T01:28:41;97550.75;;;6.33;95.86
40864;BME280;26582;47.524;19.012;2023-12-14T01:31:07;97535.34;;;6.28;95.57
40864;BME280;26582;47.524;19.012;2023-12-14T01:33:34;97531.19;;;6.25;96.19
40864;BME280;26582;47.524;19.012;2023-12-14T01:36:03;97523.34;;;6.16;97.51
40864;BME280;26582;47.524;19.012;2023-12-14T01:38:29;97530.34;;;6.25;97.09
40864;BME280;26582;47.524;19.012;2023-12-14T01:40:56;97530.28;;;6.35;96.31
40864;BME280;26582;47.524;19.012;2023-12-14T01:43:24;97524.78;;;6.28;96.66
40864;BME280;26582;47.524;19.012;2023-12-14T01:45:51;97524.16;;;6.34;96.34
40864;BME280;26582;47.524;19.012;2023-12-14T01:48:17;97528.63;;;6.34;96.14
40864;BME280;26582;47.524;19.012;2023-12-14T01:50:44;97518.34;;;6.31;96.72
40864;BME280;26582;47.524;19.012;2023-12-14T01:53:12;97515.56;;;6.32;97.00
40864;BME280;26582;47.524;19.012;2023-12-14T01:55:39;97515.75;;;6.39;96.32
40864;BME280;26582;47.524;19.012;2023-12-14T01:58:06;97519.78;;;6.25;96.81
40864;BME280;26582;47.524;19.012;2023-12-14T02:00:37;97528.63;;;6.34;96.69
40864;BME280;26582;47.524;19.012;2023-12-14T02:03:06;97534.66;;;6.26;96.58
40864;BME280;26582;47.524;19.012;2023-12-14T02:05:32;97546.97;;;6.35;96.15
40864;BME280;26582;47.524;19.012;2023-12-14T02:07:59;97560.00;;;6.37;96.61
40864;BME280;26582;47.524;19.012;2023-12-14T02:10:29;97558.59;;;6.42;96.40
40864;BME280;26582;47.524;19.012;2023-12-14T02:12:56;97566.13;;;6.55;95.42
40864;BME280;26582;47.524;19.012;2023-12-14T02:15:22;97566.28;;;6.53;94.57
40864;BME280;26582;47.524;19.012;2023-12-14T02:17:49;97562.31;;;6.58;94.30
40864;BME280;26582;47.524;19.012;2023-12-14T02:20:16;97559.34;;;6.52;94.59
40864;BME280;26582;47.524;19.012;2023-12-14T02:22:50;97564.63;;;6.52;94.35
40864;BME280;26582;47.524;19.012;2023-12-14T02:25:17;97564.81;;;6.59;94.53
40864;BME280;26582;47.524;19.012;2023-12-14T02:27:44;97571.56;;;6.53;94.99
40864;BME280;26582;47.524;19.012;2023-12-14T02:30:11;97558.63;;;6.68;94.46
40864;BME280;26582;47.524;19.012;2023-12-14T02:32:38;97570.97;;;6.68;93.27
40864;BME280;26582;47.524;19.012;2023-12-14T02:35:06;97581.00;;;6.82;93.52
40864;BME280;26582;47.524;19.012;2023-12-14T02:37:34;97572.06;;;6.83;93.15
40864;BME280;26582;47.524;19.012;2023-12-14T02:40:04;97565.94;;;6.74;93.11
40864;BME280;26582;47.524;19.012;2023-12-14T02:42:32;97585.19;;;6.67;93.68
40864;BME280;26582;47.524;19.012;2023-12-14T02:44:59;97600.50;;;6.81;92.37
40864;BME280;26582;47.524;19.012;2023-12-14T02:47:27;97596.34;;;6.78;92.93
40864;BME280;26582;47.524;19.012;2023-12-14T02:49:54;97592.22;;;6.76;92.57
40864;BME280;26582;47.524;19.012;2023-12-14T02:52:20;97596.72;;;6.84;92.24
40864;BME280;26582;47.524;19.012;2023-12-14T02:54:47;97591.19;;;6.69;92.40
40864;BME280;26582;47.524;19.012;2023-12-14T02:57:15;97580.91;;;6.66;91.99
40864;BME280;26582;47.524;19.012;2023-12-14T02:59:42;97572.59;;;6.61;92.01
40864;BME280;26582;47.524;19.012;2023-12-14T03:02:09;97566.56;;;6.50;93.05
40864;BME280;26582;47.524;19.012;2023-12-14T03:04:37;97551.94;;;6.38;93.97
40864;BME280;26582;47.524;19.012;2023-12-14T03:07:04;97550.31;;;6.37;94.17
40864;BME280;26582;47.524;19.012;2023-12-14T03:09:31;97554.31;;;6.23;94.57
40864;BME280;26582;47.524;19.012;2023-12-14T03:11:57;97554.19;;;6.07;96.03
40864;BME280;26582;47.524;19.012;2023-12-14T03:14:31;97554.69;;;5.93;96.72
40864;BME280;26582;47.524;19.012;2023-12-14T03:16:58;97566.97;;;5.84;98.14
40864;BME280;26582;47.524;19.012;2023-12-14T03:19:25;97578.81;;;5.80;98.23
40864;BME280;26582;47.524;19.012;2023-12-14T03:21:51;97582.97;;;5.83;98.67
40864;BME280;26582;47.524;19.012;2023-12-14T03:24:18;97585.16;;;5.87;97.89
40864;BME280;26582;47.524;19.012;2023-12-14T03:26:45;97595.72;;;5.87;98.09
40864;BME280;26582;47.524;19.012;2023-12-14T03:29:12;97595.88;;;5.86;97.99
40864;BME280;26582;47.524;19.012;2023-12-14T03:31:40;97594.34;;;5.83;98.42
40864;BME280;26582;47.524;19.012;2023-12-14T03:34:07;97608.78;;;5.89;98.03
40864;BME280;26582;47.524;19.012;2023-12-14T03:36:34;97589.78;;;5.85;97.74
40864;BME280;26582;47.524;19.012;2023-12-14T03:39:00;97599.69;;;5.73;97.82
40864;BME280;26582;47.524;19.012;2023-12-14T03:41:27;97615.81;;;5.80;98.56
40864;BME280;26582;47.524;19.012;2023-12-14T03:43:54;97620.59;;;5.67;99.15
40864;BME280;26582;47.524;19.012;2023-12-14T03:46:20;97613.16;;;5.53;99.15
40864;BME280;26582;47.524;19.012;2023-12-14T03:48:49;97647.56;;;5.70;98.96
40864;BME280;26582;47.524;19.012;2023-12-14T03:51:17;97651.69;;;5.73;98.59
40864;BME280;26582;47.524;19.012;2023-12-14T03:53:44;97661.75;;;5.69;98.28
40864;BME280;26582;47.524;19.012;2023-12-14T03:56:11;97668.44;;;5.64;98.01
40864;BME280;26582;47.524;19.012;2023-12-14T03:58:38;97659.94;;;5.70;98.06
40864;BME280;26582;47.524;19.012;2023-12-14T04:01:05;97660.59;;;5.72;97.72
40864;BME280;26582;47.524;19.012;2023-12-14T04:03:31;97670.28;;;5.81;98.04
40864;BME280;26582;47.524;19.012;2023-12-14T04:05:59;97668.47;;;5.91;97.57
40864;BME280;26582;47.524;19.012;2023-12-14T04:08:26;97673.00;;;5.99;96.92
40864;BME280;26582;47.524;19.012;2023-12-14T04:10:53;97670.44;;;6.07;96.11
40864;BME280;26582;47.524;19.012;2023-12-14T04:13:19;97671.56;;;6.05;95.63
40864;BME280;26582;47.524;19.012;2023-12-14T04:15:46;97672.94;;;6.09;95.08
40864;BME280;26582;47.524;19.012;2023-12-14T04:18:13;97671.88;;;6.01;95.13
40864;BME280;26582;47.524;19.012;2023-12-14T04:20:39;97684.16;;;5.93;95.69
40864;BME280;26582;47.524;19.012;2023-12-14T04:23:07;97684.78;;;6.05;95.27
40864;BME280;26582;47.524;19.012;2023-12-14T04:25:34;97689.59;;;5.91;95.72
40864;BME280;26582;47.524;19.012;2023-12-14T04:28:01;97693.84;;;6.02;95.40
40864;BME280;26582;47.524;19.012;2023-12-14T04:30:27;97693.75;;;5.94;95.37
40864;BME280;26582;47.524;19.012;2023-12-14T04:32:54;97696.00;;;6.16;95.01
40864;BME280;26582;47.524;19.012;2023-12-14T04:35:21;97691.75;;;6.23;94.05
40864;BME280;26582;47.524;19.012;2023-12-14T04:37:48;97680.44;;;6.13;94.01
40864;BME280;26582;47.524;19.012;2023-12-14T04:40:16;97684.81;;;6.22;94.17
40864;BME280;26582;47.524;19.012;2023-12-14T04:42:44;97678.53;;;6.23;94.07
40864;BME280;26582;47.524;19.012;2023-12-14T04:45:11;97682.03;;;6.24;93.60
40864;BME280;26582;47.524;19.012;2023-12-14T04:47:38;97686.00;;;6.10;94.18
40864;BME280;26582;47.524;19.012;2023-12-14T04:50:05;97694.91;;;6.09;94.34
40864;BME280;26582;47.524;19.012;2023-12-14T04:52:32;97695.72;;;6.10;94.33
40864;BME280;26582;47.524;19.012;2023-12-14T04:54:59;97696.88;;;6.07;94.58
40864;BME280;26582;47.524;19.012;2023-12-14T04:57:27;97716.75;;;6.11;94.54
40864;BME280;26582;47.524;19.012;2023-12-14T04:59:54;97715.75;;;6.12;94.43
40864;BME280;26582;47.524;19.012;2023-12-14T05:02:20;97712.91;;;6.23;93.71
40864;BME280;26582;47.524;19.012;2023-12-14T05:04:47;97722.00;;;6.39;92.64
40864;BME280;26582;47.524;19.012;2023-12-14T05:07:14;97724.59;;;6.21;93.07
40864;BME280;26582;47.524;19.012;2023-12-14T05:09:40;97723.03;;;6.28;93.04
40864;BME280;26582;47.524;19.012;2023-12-14T05:12:07;97733.38;;;6.21;93.32
40864;BME280;26582;47.524;19.012;2023-12-14T05:14:35;97700.13;;;6.01;93.57
40864;BME280;26582;47.524;19.012;2023-12-14T05:17:02;97726.75;;;6.35;92.80
40864;BME280;26582;47.524;19.012;2023-12-14T05:19:27;97725.69;;;6.28;92.69
40864;BME280;26582;47.524;19.012;2023-12-14T05:21:54;97722.34;;;6.26;92.30
40864;BME280;26582;47.524;19.012;2023-12-14T05:24:21;97725.97;;;6.25;92.07
40864;BME280;26582;47.524;19.012;2023-12-14T05:26:47;97723.47;;;6.06;92.35
40864;BME280;26582;47.524;19.012;2023-12-14T05:29:15;97732.50;;;6.03;92.78
40864;BME280;26582;47.524;19.012;2023-12-14T05:31:43;97744.22;;;6.00;93.91
40864;BME280;26582;47.524;19.012;2023-12-14T05:34:10;97754.06;;;5.98;93.56
40864;BME280;26582;47.524;19.012;2023-12-14T05:36:37;97758.69;;;5.87;93.96
40864;BME280;26582;47.524;19.012;2023-12-14T05:39:04;97760.09;;;5.81;94.77
40864;BME280;26582;47.524;19.012;2023-12-14T05:41:30;97763.59;;;5.82;94.70
40864;BME280;26582;47.524;19.012;2023-12-14T05:43:57;97772.88;;;5.95;94.45
40864;BME280;26582;47.524;19.012;2023-12-14T05:46:24;97783.44;;;5.95;94.35
40864;BME280;26582;47.524;19.012;2023-12-14T05:48:52;97787.75;;;5.96;94.16
40864;BME280;26582;47.524;19.012;2023-12-14T05:51:28;97792.72;;;5.99;93.84
40864;BME280;26582;47.524;19.012;2023-12-14T05:53:55;97800.97;;;5.96;93.81
40864;BME280;26582;47.524;19.012;2023-12-14T05:56:22;97796.78;;;5.84;93.87
40864;BME280;26582;47.524;19.012;2023-12-14T05:58:49;97799.59;;;5.73;95.16
40864;BME280;26582;47.524;19.012;2023-12-14T06:01:16;97802.56;;;5.60;96.14
40864;BME280;26582;47.524;19.012;2023-12-14T06:03:43;97803.56;;;5.49;97.21
40864;BME280;26582;47.524;19.012;2023-12-14T06:06:12;97806.22;;;5.49;97.27
40864;BME280;26582;47.524;19.012;2023-12-14T06:08:40;97803.59;;;5.40;97.91
40864;BME280;26582;47.524;19.012;2023-12-14T06:11:07;97802.91;;;5.38;98.18
40864;BME280;26582;47.524;19.012;2023-12-14T06:13:34;97807.88;;;5.50;97.91
40864;BME280;26582;47.524;19.012;2023-12-14T06:16:01;97803.16;;;5.44;97.90
40864;BME280;26582;47.524;19.012;2023-12-14T06:18:28;97805.97;;;5.33;99.06
40864;BME280;26582;47.524;19.012;2023-12-14T06:20:55;97807.72;;;5.42;99.21
40864;BME280;26582;47.524;19.012;2023-12-14T06:23:23;97806.06;;;5.41;98.45
40864;BME280;26582;47.524;19.012;2023-12-14T06:25:50;97798.56;;;5.37;98.92
40864;BME280;26582;47.524;19.012;2023-12-14T06:28:17;97814.97;;;5.50;98.48
40864;BME280;26582;47.524;19.012;2023-12-14T06:30:44;97813.56;;;5.46;98.18
40864;BME280;26582;47.524;19.012;2023-12-14T06:33:10;97817.88;;;5.47;98.54
40864;BME280;26582;47.524;19.012;2023-12-14T06:35:37;97812.19;;;5.42;97.98
40864;BME280;26582;47.524;19.012;2023-12-14T06:38:03;97827.72;;;5.64;97.83
40864;BME280;26582;47.524;19.012;2023-12-14T06:40:31;97835.25;;;5.59;97.68
40864;BME280;26582;47.524;19.012;2023-12-14T06:42:57;97830.91;;;5.58;98.15
40864;BME280;26582;47.524;19.012;2023-12-14T06:45:24;97834.53;;;5.67;97.14
40864;BME280;26582;47.524;19.012;2023-12-14T06:47:51;97825.09;;;5.55;97.72
40864;BME280;26582;47.524;19.012;2023-12-14T06:50:17;97811.63;;;5.48;97.69
40864;BME280;26582;47.524;19.012;2023-12-14T06:52:44;97831.47;;;5.62;97.35
40864;BME280;26582;47.524;19.012;2023-12-14T06:55:13;97839.41;;;5.62;97.92
40864;BME280;26582;47.524;19.012;2023-12-14T06:57:43;97847.44;;;5.70;97.07
40864;BME280;26582;47.524;19.012;2023-12-14T07:00:13;97847.22;;;5.54;97.96
40864;BME280;26582;47.524;19.012;2023-12-14T07:02:39;97855.25;;;5.62;97.88
40864;BME280;26582;47.524;19.012;2023-12-14T07:05:06;97853.31;;;5.64;97.25
40864;BME280;26582;47.524;19.012;2023-12-14T07:07:33;97846.91;;;5.57;97.52
40864;BME280;26582;47.524;19.012;2023-12-14T07:10:00;97851.09;;;5.49;97.50
40864;BME280;26582;47.524;19.012;2023-12-14T07:12:27;97859.94;;;5.68;97.17
40864;BME280;26582;47.524;19.012;2023-12-14T07:14:55;97869.56;;;5.49;97.51
40864;BME280;26582;47.524;19.012;2023-12-14T07:17:21;97870.41;;;5.50;98.36
40864;BME280;26582;47.524;19.012;2023-12-14T07:19:49;97876.94;;;5.65;97.63
40864;BME280;26582;47.524;19.012;2023-12-14T07:22:16;97896.50;;;5.63;98.07
40864;BME280;26582;47.524;19.012;2023-12-14T07:24:43;97898.06;;;5.65;97.56
40864;BME280;26582;47.524;19.012;2023-12-14T07:27:09;97890.81;;;5.77;97.06
40864;BME280;26582;47.524;19.012;2023-12-14T07:29:36;97906.38;;;5.70;98.12
40864;BME280;26582;47.524;19.012;2023-12-14T07:32:05;97907.47;;;5.78;97.37
40864;BME280;26582;47.524;19.012;2023-12-14T07:34:31;97910.69;;;5.81;96.90
40864;BME280;26582;47.524;19.012;2023-12-14T07:36:58;97905.25;;;5.83;96.21
40864;BME280;26582;47.524;19.012;2023-12-14T07:39:25;97909.88;;;5.71;96.71
40864;BME280;26582;47.524;19.012;2023-12-14T07:41:52;97908.63;;;5.75;97.40
40864;BME280;26582;47.524;19.012;2023-12-14T07:44:19;97911.09;;;5.86;97.59
40864;BME280;26582;47.524;19.012;2023-12-14T07:46:45;97917.50;;;5.93;96.72
40864;BME280;26582;47.524;19.012;2023-12-14T07:49:14;97912.94;;;5.95;95.76
40864;BME280;26582;47.524;19.012;2023-12-14T07:51:40;97927.38;;;5.91;95.79
40864;BME280;26582;47.524;19.012;2023-12-14T07:54:07;97933.34;;;5.93;96.20
40864;BME280;26582;47.524;19.012;2023-12-14T07:56:34;97934.19;;;5.94;96.51
40864;BME280;26582;47.524;19.012;2023-12-14T07:59:00;97935.41;;;5.99;96.17
40864;BME280;26582;47.524;19.012;2023-12-14T08:01:28;97934.31;;;6.02;95.47
40864;BME280;26582;47.524;19.012;2023-12-14T08:03:58;97931.38;;;6.05;95.78
40864;BME280;26582;47.524;19.012;2023-12-14T08:06:26;97943.50;;;6.08;95.84
40864;BME280;26582;47.524;19.012;2023-12-14T08:08:52;97939.44;;;6.13;94.92
40864;BME280;26582;47.524;19.012;2023-12-14T08:11:22;97945.16;;;5.99;95.39
40864;BME280;26582;47.524;19.012;2023-12-14T08:13:49;97952.41;;;6.07;94.84
40864;BME280;26582;47.524;19.012;2023-12-14T08:16:17;97963.66;;;5.99;94.78
40864;BME280;26582;47.524;19.012;2023-12-14T08:18:44;97965.19;;;6.01;95.56
40864;BME280;26582;47.524;19.012;2023-12-14T08:21:12;97965.28;;;6.19;95.08
40864;BME280;26582;47.524;19.012;2023-12-14T08:23:40;97959.09;;;6.01;95.68
40864;BME280;26582;47.524;19.012;2023-12-14T08:26:07;97970.59;;;6.10;95.01
40864;BME280;26582;47.524;19.012;2023-12-14T08:28:35;97975.31;;;6.16;94.60
40864;BME280;26582;47.524;19.012;2023-12-14T08:31:02;97972.16;;;6.03;95.41
40864;BME280;26582;47.524;19.012;2023-12-14T08:33:29;97985.63;;;5.99;95.11
40864;BME280;26582;47.524;19.012;2023-12-14T08:35:56;97977.84;;;6.08;94.99
40864;BME280;26582;47.524;19.012;2023-12-14T08:38:23;97988.25;;;6.09;95.03
40864;BME280;26582;47.524;19.012;2023-12-14T08:40:51;97961.56;;;6.03;94.39
40864;BME280;26582;47.524;19.012;2023-12-14T08:43:18;97990.06;;;6.18;95.08
40864;BME280;26582;47.524;19.012;2023-12-14T08:45:45;97983.66;;;6.21;94.59
40864;BME280;26582;47.524;19.012;2023-12-14T08:48:12;97981.72;;;6.23;94.17
40864;BME280;26582;47.524;19.012;2023-12-14T08:50:39;97989.50;;;6.24;93.82
40864;BME280;26582;47.524;19.012;2023-12-14T08:53:06;98004.38;;;6.25;93.60
40864;BME280;26582;47.524;19.012;2023-12-14T08:55:34;97998.69;;;6.20;94.09
40864;BME280;26582;47.524;19.012;2023-12-14T08:58:02;98004.91;;;6.39;93.60
40864;BME280;26582;47.524;19.012;2023-12-14T09:00:28;98006.31;;;6.33;94.07
40864;BME280;26582;47.524;19.012;2023-12-14T09:02:55;98005.19;;;6.26;94.27
40864;BME280;26582;47.524;19.012;2023-12-14T09:05:22;98015.34;;;6.31;94.16
40864;BME280;26582;47.524;19.012;2023-12-14T09:07:49;98025.66;;;6.34;93.93
40864;BME280;26582;47.524;19.012;2023-12-14T09:10:18;98024.81;;;6.43;93.73
40864;BME280;26582;47.524;19.012;2023-12-14T09:12:44;98024.09;;;6.50;92.94
40864;BME280;26582;47.524;19.012;2023-12-14T09:15:12;98021.22;;;6.34;94.09
40864;BME280;26582;47.524;19.012;2023-12-14T09:17:41;97990.31;;;6.25;93.60
40864;BME280;26582;47.524;19.012;2023-12-14T09:20:09;98011.72;;;6.41;93.74
40864;BME280;26582;47.524;19.012;2023-12-14T09:22:36;98026.47;;;6.53;93.65
40864;BME280;26582;47.524;19.012;2023-12-14T09:25:04;98027.53;;;6.61;92.88
40864;BME280;26582;47.524;19.012;2023-12-14T09:27:30;98033.25;;;6.66;92.60
40864;BME280;26582;47.524;19.012;2023-12-14T09:29:57;98030.47;;;6.58;93.02
40864;BME280;26582;47.524;19.012;2023-12-14T09:32:25;98033.81;;;6.69;92.42
40864;BME280;26582;47.524;19.012;2023-12-14T09:34:52;98031.41;;;6.76;92.02
40864;BME280;26582;47.524;19.012;2023-12-14T09:37:21;98036.09;;;6.82;91.24
40864;BME280;26582;47.524;19.012;2023-12-14T09:39:48;98043.13;;;6.73;91.49
40864;BME280;26582;47.524;19.012;2023-12-14T09:42:18;98041.72;;;6.79;91.46
40864;BME280;26582;47.524;19.012;2023-12-14T09:44:45;98045.84;;;6.91;91.64
40864;BME280;26582;47.524;19.012;2023-12-14T09:47:13;98051.53;;;6.96;91.22
40864;BME280;26582;47.524;19.012;2023-12-14T09:49:42;98049.03;;;6.95;90.85
40864;BME280;26582;47.524;19.012;2023-12-14T09:52:09;98034.19;;;6.84;91.42
40864;BME280;26582;47.524;19.012;2023-12-14T09:54:36;98048.28;;;7.02;91.24
40864;BME280;26582;47.524;19.012;2023-12-14T09:57:03;98047.66;;;6.91;90.66
40864;BME280;26582;47.524;19.012;2023-12-14T09:59:30;98059.13;;;7.09;90.95
40864;BME280;26582;47.524;19.012;2023-12-14T10:02:08;98067.44;;;7.24;90.21
40864;BME280;26582;47.524;19.012;2023-12-14T10:04:35;98038.78;;;7.10;90.09
40864;BME280;26582;47.524;19.012;2023-12-14T10:07:03;98060.75;;;7.20;90.03
40864;BME280;26582;47.524;19.012;2023-12-14T10:09:32;98060.19;;;7.26;89.72
40864;BME280;26582;47.524;19.012;2023-12-14T10:12:03;98068.53;;;7.31;89.36
40864;BME280;26582;47.524;19.012;2023-12-14T10:14:31;98074.34;;;7.35;89.18
40864;BME280;26582;47.524;19.012;2023-12-14T10:16:58;98077.50;;;7.48;88.72
40864;BME280;26582;47.524;19.012;2023-12-14T10:19:25;98071.94;;;7.41;88.75
40864;BME280;26582;47.524;19.012;2023-12-14T10:22:09;98071.47;;;7.28;88.23
40864;BME280;26582;47.524;19.012;2023-12-14T10:24:44;98081.69;;;7.41;89.07
40864;BME280;26582;47.524;19.012;2023-12-14T10:27:11;98083.63;;;7.48;88.19
40864;BME280;26582;47.524;19.012;2023-12-14T10:29:38;98085.69;;;7.54;88.28
40864;BME280;26582;47.524;19.012;2023-12-14T10:32:06;98090.63;;;7.67;87.17
40864;BME280;26582;47.524;19.012;2023-12-14T10:34:34;98099.16;;;7.61;87.05
40864;BME280;26582;47.524;19.012;2023-12-14T10:37:01;98103.94;;;7.57;87.27
40864;BME280;26582;47.524;19.012;2023-12-14T10:39:31;98103.03;;;7.39;87.39
40864;BME280;26582;47.524;19.012;2023-12-14T10:42:02;98101.38;;;7.38;87.88
40864;BME280;26582;47.524;19.012;2023-12-14T10:44:30;98056.88;;;7.14;88.41
40864;BME280;26582;47.524;19.012;2023-12-14T10:46:59;98112.91;;;7.47;88.41
40864;BME280;26582;47.524;19.012;2023-12-14T10:49:28;98113.25;;;7.34;87.80
40864;BME280;26582;47.524;19.012;2023-12-14T10:51:57;98106.56;;;7.30;88.45
40864;BME280;26582;47.524;19.012;2023-12-14T10:54:25;98112.69;;;7.30;88.21
40864;BME280;26582;47.524;19.012;2023-12-14T10:56:54;98121.53;;;7.49;88.40
40864;BME280;26582;47.524;19.012;2023-12-14T10:59:23;98121.31;;;7.42;88.78
40864;BME280;26582;47.524;19.012;2023-12-14T11:01:51;98119.88;;;7.48;87.70
40864;BME280;26582;47.524;19.012;2023-12-14T11:04:18;98126.69;;;7.50;88.43
40864;BME280;26582;47.524;19.012;2023-12-14T11:06:45;98105.28;;;7.34;88.37
40864;BME280;26582;47.524;19.012;2023-12-14T11:09:17;98120.09;;;7.27;88.59
40864;BME280;26582;47.524;19.012;2023-12-14T11:11:54;98131.19;;;7.40;88.21
40864;BME280;26582;47.524;19.012;2023-12-14T11:14:24;98137.59;;;7.47;88.36
40864;BME280;26582;47.524;19.012;2023-12-14T11:16:54;98137.06;;;7.34;88.67
40864;BME280;26582;47.524;19.012;2023-12-14T11:19:29;98140.63;;;7.52;87.56
40864;BME280;26582;47.524;19.012;2023-12-14T11:22:27;98147.88;;;7.50;88.35
40864;BME280;26582;47.524;19.012;2023-12-14T11:24:56;98147.91;;;7.41;88.24
40864;BME280;26582;47.524;19.012;2023-12-14T11:27:29;98147.28;;;7.56;88.43
40864;BME280;26582;47.524;19.012;2023-12-14T11:29:58;98148.22;;;7.65;87.46
40864;BME280;26582;47.524;19.012;2023-12-14T11:32:26;98162.91;;;7.59;88.10
40864;BME280;26582;47.524;19.012;2023-12-14T11:34:53;98145.94;;;7.80;87.44
40864;BME280;26582;47.524;19.012;2023-12-14T11:37:19;98157.59;;;7.87;86.90
40864;BME280;26582;47.524;19.012;2023-12-14T11:39:49;98156.59;;;7.88;87.21
40864;BME280;26582;47.524;19.012;2023-12-14T11:42:18;98161.34;;;7.94;86.51
40864;BME280;26582;47.524;19.012;2023-12-14T11:44:45;98153.72;;;7.81;86.55
40864;BME280;26582;47.524;19.012;2023-12-14T11:47:13;98156.47;;;7.90;86.75
40864;BME280;26582;47.524;19.012;2023-12-14T11:49:40;98161.03;;;7.97;86.70
40864;BME280;26582;47.524;19.012;2023-12-14T11:52:07;98155.06;;;7.95;85.99
40864;BME280;26582;47.524;19.012;2023-12-14T11:54:34;98165.88;;;8.02;85.64
40864;BME280;26582;47.524;19.012;2023-12-14T11:57:01;98155.44;;;8.00;84.97
40864;BME280;26582;47.524;19.012;2023-12-14T11:59:29;98165.59;;;8.05;85.50
40864;BME280;26582;47.524;19.012;2023-12-14T12:01:58;98166.09;;;7.91;85.72
40864;BME280;26582;47.524;19.012;2023-12-14T12:04:28;98176.81;;;8.17;85.18
40864;BME280;26582;47.524;19.012;2023-12-14T12:06:59;98176.81;;;8.34;84.37
40864;BME280;26582;47.524;19.012;2023-12-14T12:09:34;98174.06;;;8.08;84.83
40864;BME280;26582;47.524;19.012;2023-12-14T12:12:01;98173.28;;;7.98;85.27
40864;BME280;26582;47.524;19.012;2023-12-14T12:14:31;98175.28;;;8.14;84.75
40864;BME280;26582;47.524;19.012;2023-12-14T12:16:57;98169.03;;;8.33;84.16
40864;BME280;26582;47.524;19.012;2023-12-14T12:19:24;98178.00;;;8.50;84.31
40864;BME280;26582;47.524;19.012;2023-12-14T12:21:52;98178.75;;;8.60;82.81
40864;BME280;26582;47.524;19.012;2023-12-14T12:24:19;98175.94;;;8.79;81.93
40864;BME280;26582;47.524;19.012;2023-12-14T12:26:45;98186.50;;;9.15;80.19
40864;BME280;26582;47.524;19.012;2023-12-14T12:29:12;98183.84;;;9.41;78.27
40864;BME280;26582;47.524;19.012;2023-12-14T12:31:39;98183.19;;;9.73;76.42
40864;BME280;26582;47.524;19.012;2023-12-14T12:34:05;98189.41;;;10.32;73.96
40864;BME280;26582;47.524;19.012;2023-12-14T12:36:32;98208.13;;;10.65;71.32
40864;BME280;26582;47.524;19.012;2023-12-14T12:39:00;98208.13;;;10.97;69.47
40864;BME280;26582;47.524;19.012;2023-12-14T12:41:26;98196.91;;;11.43;67.82
40864;BME280;26582;47.524;19.012;2023-12-14T12:43:53;98196.50;;;11.87;65.58
40864;BME280;26582;47.524;19.012;2023-12-14T12:46:20;98213.75;;;12.07;64.45
40864;BME280;26582;47.524;19.012;2023-12-14T12:48:47;98200.19;;;12.94;61.88
40864;BME280;26582;47.524;19.012;2023-12-14T12:51:14;98205.59;;;13.09;59.74
40864;BME280;26582;47.524;19.012;2023-12-14T12:53:41;98211.28;;;12.91;59.93
40864;BME280;26582;47.524;19.012;2023-12-14T12:56:09;98185.13;;;12.55;60.97
40864;BME280;26582;47.524;19.012;2023-12-14T12:58:36;98224.78;;;12.66;60.68
40864;BME280;26582;47.524;19.012;2023-12-14T13:01:03;98220.47;;;12.34;61.66